Latest Weather Observations for Leigh Creek

IDS60801

Issued at 5:02 pm CST Thursday 17 August 2017 (issued every 30 minutes, with the page automatically refreshed every 10 minutes)

About weather observations | Map of weather stations | Latest weather observations for SA | Other Formats
Station Details ID: 017110 Name: LEIGH CREEK AIRPORT Lat: -30.60 Lon: 138.42 Height: 258.8 m
Data from the previous 72 hours. | See also: Recent months at Leigh Creek
Date/Time
CST
Temp
°C
App
Temp
°C
Dew
Point
°C
Rel
Hum
%
Delta-T
°C
Wind Press
QNH
hPa
Press
MSL
hPa
Rain since
9am
mm
Dir  Spd
km/h
Gust
km/h
Spd
kts
Gust
kts
17/05:00pm 18.3 9.8 -1.5 26 8.5 W 33 43 18 23 1015.6 1015.6 0.0
17/04:30pm 18.6 10.1 0.7 30 8.0 WSW 35 50 19 27 1015.4 1015.4 0.0
17/04:02pm 19.2 11.1 -0.2 27 8.6 WSW 32 50 17 27 1015.2 1015.2 0.0
17/04:00pm 19.4 10.8 -0.1 27 8.7 WSW 35 50 19 27 1015.1 1015.1 0.0
17/03:32pm 19.4 11.1 -0.6 26 8.8 WSW 33 52 18 28 1015.0 1015.0 0.0
17/03:30pm 19.3 10.6 -0.7 26 8.8 WSW 35 50 19 27 1014.8 1014.8 0.0
17/03:14pm 19.7 12.4 -0.3 26 8.9 WSW 28 52 15 28 1014.8 1014.8 0.0
17/03:00pm 19.7 11.2 0.7 28 8.6 W 35 48 19 26 1014.9 1014.9 0.0
17/02:30pm 19.9 12.0 0.9 28 8.6 W 32 46 17 25 1014.9 1014.9 0.0
17/02:00pm 19.3 11.4 0.8 29 8.4 WSW 32 43 17 23 1014.9 1014.9 0.0
17/01:30pm 19.0 11.5 1.1 30 8.1 WSW 30 46 16 25 1015.2 1015.2 0.0
17/01:00pm 18.3 10.7 0.4 30 8.0 W 30 43 16 23 1015.4 1015.4 0.0
17/12:30pm 17.8 9.5 -0.5 29 8.0 WSW 33 48 18 26 1015.6 1015.6 0.0
17/12:00pm 17.9 10.0 1.0 32 7.6 WSW 32 44 17 24 1015.8 1015.8 0.0
17/11:32am 18.1 11.0 1.6 33 7.5 W 28 50 15 27 1015.9 1015.9 0.0
17/11:30am 17.8 11.2 2.2 35 7.2 W 26 39 14 21 1016.0 1016.0 0.0
17/11:00am 17.6 11.4 2.4 36 7.0 W 24 32 13 17 1016.3 1016.3 0.0
17/10:30am 16.4 11.5 2.1 38 6.5 W 17 26 9 14 1016.4 1016.4 0.0
17/10:00am 15.7 10.3 1.1 37 6.4 W 19 26 10 14 1016.6 1016.5 0.0
17/09:30am 15.1 10.0 0.5 37 6.3 W 17 22 9 12 1016.3 1016.3 0.0
17/09:00am 14.5 10.0 0.0 37 6.2 W 13 17 7 9 1015.9 1015.9 0.0
17/08:30am 14.0 9.5 -0.1 38 6.0 W 13 17 7 9 1015.7 1015.7 0.0
17/08:00am 11.8 9.8 -0.4 43 5.0 CALM 0 0 0 0 1015.2 1015.2 0.0
17/07:30am 8.8 6.7 -1.0 50 3.9 CALM 0 0 0 0 1014.8 1014.8 0.0
17/07:00am 6.8 4.5 -2.1 53 3.3 CALM 0 9 0 5 1014.4 1014.4 0.0
17/06:30am 8.5 6.3 -1.3 50 3.8 CALM 0 0 0 0 1014.2 1014.2 0.0
17/06:00am 7.2 4.9 -2.2 51 3.5 CALM 0 0 0 0 1014.0 1013.9 0.0
17/05:30am 5.8 3.5 -2.3 56 3.0 CALM 0 0 0 0 1013.7 1013.6 0.0
17/05:00am 6.4 4.1 -2.2 54 3.2 CALM 0 0 0 0 1013.4 1013.3 0.0
17/04:30am 4.8 2.5 -2.3 60 2.6 CALM 0 0 0 0 1013.3 1013.2 0.0
17/04:00am 5.3 2.9 -2.8 56 2.9 CALM 0 0 0 0 1013.2 1013.1 0.0
17/03:30am 4.9 1.4 -2.7 58 2.7 NW 6 7 3 4 1013.2 1013.1 0.0
17/03:00am 4.7 1.0 -3.1 57 2.8 NW 7 9 4 5 1013.2 1013.1 0.0
17/02:30am 5.4 3.1 -2.4 57 2.9 CALM 0 0 0 0 1013.3 1013.2 0.0
17/02:00am 5.4 3.0 -2.9 55 3.0 CALM 0 0 0 0 1013.5 1013.4 0.0
17/01:30am 6.2 3.9 -2.4 54 3.2 CALM 0 0 0 0 1013.7 1013.6 0.0
17/01:00am 6.9 4.6 -2.0 53 3.3 CALM 0 0 0 0 1014.0 1013.9 0.0
17/12:30am 7.3 5.1 -1.9 52 3.5 CALM 0 0 0 0 1014.1 1014.1 0.0
17/12:00am 7.1 4.8 -2.1 52 3.5 CALM 0 0 0 0 1014.2 1014.2 0.0
 
Date/Time
CST
Temp
°C
App
Temp
°C
Dew
Point
°C
Rel
Hum
%
Delta-T
°C
Wind Press
QNH
hPa
Press
MSL
hPa
Rain since
9am
mm
Dir  Spd
km/h
Gust
km/h
Spd
kts
Gust
kts
16/11:30pm 7.4 5.1 -2.6 49 3.7 CALM 0 0 0 0 1014.2 1014.2 0.0
16/11:00pm 8.0 5.7 -2.0 49 3.8 CALM 0 0 0 0 1014.3 1014.3 0.0
16/10:30pm 8.6 6.3 -2.3 46 4.1 CALM 0 0 0 0 1014.4 1014.4 0.0
16/10:00pm 9.4 7.2 -1.9 45 4.4 CALM 0 0 0 0 1014.4 1014.4 0.0
16/09:30pm 10.9 7.4 -1.2 43 4.8 NW 7 9 4 5 1014.3 1014.3 0.0
16/09:00pm 10.9 6.6 -1.5 42 4.9 WNW 11 11 6 6 1014.1 1014.1 0.0
16/08:30pm 12.0 9.8 -1.2 40 5.3 CALM 0 0 0 0 1013.8 1013.7 0.0
16/08:00pm 12.1 8.6 -1.4 39 5.5 WNW 7 9 4 5 1013.7 1013.6 0.0
16/07:30pm 13.0 9.2 -1.0 38 5.8 WNW 9 13 5 7 1013.5 1013.4 0.0
16/07:00pm 13.8 10.0 -1.0 36 6.1 W 9 11 5 6 1013.2 1013.1 0.0
16/06:30pm 14.8 10.6 -0.9 34 6.6 W 11 19 6 10 1012.8 1012.7 0.0
16/06:00pm 15.9 10.6 -0.8 32 7.1 W 17 26 9 14 1012.6 1012.5 0.0
16/05:30pm 16.9 11.2 0.5 33 7.2 W 20 28 11 15 1012.2 1012.2 0.0
16/05:00pm 17.9 12.3 0.1 30 7.8 W 19 26 10 14 1011.9 1011.9 0.0
16/04:30pm 18.1 12.7 1.2 32 7.6 W 19 30 10 16 1011.7 1011.7 0.0
16/04:00pm 18.5 12.9 1.1 31 7.9 WSW 20 30 11 16 1011.6 1011.6 0.0
16/03:30pm 18.4 12.3 0.1 29 8.1 WSW 22 30 12 16 1011.5 1011.5 0.0
16/03:00pm 18.4 11.7 -0.9 27 8.4 WSW 24 35 13 19 1011.5 1011.5 0.0
16/02:30pm 18.3 12.9 1.3 32 7.7 WSW 19 33 10 18 1011.5 1011.5 0.0
16/02:00pm 18.6 13.0 3.3 36 7.2 WSW 22 32 12 17 1011.6 1011.6 0.0
16/01:30pm 17.9 12.8 4.1 40 6.6 WSW 20 37 11 20 1011.9 1011.9 0.0
16/01:00pm 17.9 11.9 3.4 38 6.8 W 24 35 13 19 1012.2 1012.2 0.0
16/12:30pm 17.4 12.2 3.3 39 6.6 W 20 37 11 20 1012.8 1012.7 0.0
16/12:00pm 16.7 10.8 4.1 43 6.0 SW 24 39 13 21 1013.1 1013.0 0.0
16/11:30am 15.3 10.0 5.0 50 4.9 WSW 22 35 12 19 1013.7 1013.6 0.0
16/11:00am 16.0 10.6 6.4 53 4.7 WSW 24 35 13 19 1013.7 1013.6 0.0
16/10:30am 15.2 9.0 6.2 55 4.4 WSW 28 41 15 22 1013.8 1013.7 0.0
16/10:00am 15.4 9.6 6.4 55 4.4 SW 26 32 14 17 1013.8 1013.7 0.0
16/09:30am 14.5 9.9 6.6 59 3.9 WSW 20 35 11 19 1013.9 1013.8 0.0
16/09:00am 14.2 9.8 7.3 63 3.4 WSW 20 30 11 16 1013.7 1013.6 0.0
16/08:30am 13.8 8.5 6.9 63 3.4 WSW 24 32 13 17 1013.4 1013.3 0.0
16/08:00am 13.1 8.2 6.7 65 3.1 WSW 22 30 12 16 1013.1 1013.0 0.0
16/07:30am 12.4 7.9 6.2 66 3.0 SW 19 30 10 16 1012.7 1012.6 0.0
16/07:00am 11.6 7.4 5.5 66 2.9 SW 17 22 9 12 1012.5 1012.4 0.0
16/06:30am 11.9 7.3 5.5 65 3.0 SW 19 30 10 16 1011.9 1011.9 0.0
16/06:00am 12.0 7.3 6.1 67 2.8 SW 20 32 11 17 1011.6 1011.6 0.0
16/05:30am 12.4 7.7 6.2 66 3.0 SSW 20 30 11 16 1011.4 1011.4 0.0
16/05:00am 12.9 7.1 6.3 64 3.2 SW 26 43 14 23 1011.1 1011.1 0.0
16/04:30am 13.1 6.5 6.2 63 3.3 SW 30 41 16 22 1010.7 1010.6 0.0
16/04:00am 13.5 6.5 5.9 60 3.6 SW 32 41 17 22 1010.5 1010.4 0.0
16/03:30am 14.0 7.7 5.6 57 4.0 SW 28 43 15 23 1010.4 1010.3 0.0
16/03:00am 13.8 8.1 6.7 62 3.5 SW 26 33 14 18 1010.4 1010.3 0.0
16/02:30am 13.9 8.5 6.3 60 3.7 SSW 24 30 13 16 1010.6 1010.5 0.0
16/02:00am 13.9 8.5 6.5 61 3.6 SW 24 30 13 16 1010.8 1010.8 0.0
16/01:30am 14.0 8.3 8.4 69 2.8 SW 28 37 15 20 1010.6 1010.5 0.0
16/01:00am 14.5 7.1 11.1 80 1.8 SW 41 63 22 34 1010.6 1010.5 0.0
16/12:50am 14.6 7.7 11.7 83 1.6 SW 39 57 21 31 1010.7 1010.6 0.0
16/12:30am 15.9 8.4 10.7 71 2.8 SW 41 54 22 29 1010.5 1010.4 0.0
16/12:11am 16.1 8.4 10.2 68 3.1 WSW 41 59 22 32 1010.6 1010.5 0.0
16/12:00am 16.1 8.1 10.6 70 3.0 WSW 43 57 23 31 1010.8 1010.8 0.0
 
Date/Time
CST
Temp
°C
App
Temp
°C
Dew
Point
°C
Rel
Hum
%
Delta-T
°C
Wind Press
QNH
hPa
Press
MSL
hPa
Rain since
9am
mm
Dir  Spd
km/h
Gust
km/h
Spd
kts
Gust
kts
15/11:30pm 16.0 9.0 11.2 73 2.6 SW 39 61 21 33 1010.8 1010.8 0.0
15/11:07pm 16.1 8.7 11.1 72 2.7 SW 41 59 22 32 1010.7 1010.6 0.0
15/11:00pm 15.9 8.8 10.9 72 2.7 SW 39 52 21 28 1010.8 1010.8 0.0
15/10:42pm 16.4 8.4 10.5 68 3.2 SSW 43 61 23 33 1010.4 1010.3 0.0
15/10:30pm 16.5 7.7 9.4 63 3.7 SSW 46 59 25 32 1010.2 1010.1 0.0
15/10:00pm 17.0 9.7 8.9 59 4.2 SSW 37 56 20 30 1009.7 1009.6 0.0
15/09:30pm 17.4 9.9 9.6 60 4.2 SSW 39 50 21 27 1009.3 1009.2 0.0
15/09:00pm 17.9 10.2 10.0 60 4.3 SSW 41 54 22 29 1009.1 1009.0 0.0
15/08:30pm 20.4 14.9 9.3 49 6.0 SW 28 57 15 31 1008.0 1008.0 0.0
15/08:00pm 21.1 17.1 9.0 46 6.5 SW 20 28 11 15 1007.4 1007.3 0.0
15/07:30pm 21.8 17.0 9.0 44 6.9 SSW 24 30 13 16 1006.9 1006.8 0.0
15/07:00pm 23.0 18.0 7.9 38 8.0 SW 24 32 13 17 1006.5 1006.4 0.0
15/06:30pm 24.5 19.9 3.8 26 10.3 WSW 17 22 9 12 1005.9 1005.8 0.0
15/06:00pm 25.5 20.6 2.2 22 11.4 W 17 24 9 13 1005.8 1005.7 0.0
15/05:30pm 26.8 21.5 2.0 20 12.2 WSW 19 26 10 14 1005.4 1005.3 0.0
15/05:00pm 28.2 22.7 1.7 18 13.0 WSW 20 28 11 15 1005.0 1004.9 0.0
15/04:30pm 29.7 23.0 1.2 16 14.1 W 26 35 14 19 1004.6 1004.5 0.0
15/04:00pm 31.2 22.7 0.6 14 15.1 WNW 35 52 19 28 1004.4 1004.3 0.0
15/03:40pm 31.2 21.1 0.6 14 15.1 NW 43 61 23 33 1004.5 1004.4 0.0
15/03:30pm 31.0 20.3 0.4 14 15.0 NW 46 59 25 32 1004.7 1004.6 0.0
15/03:20pm 31.4 22.0 -0.3 13 15.4 WNW 39 59 21 32 1004.7 1004.6 0.0
15/03:00pm 31.5 22.1 -0.2 13 15.5 NW 39 52 21 28 1004.8 1004.7 0.0
15/02:35pm 31.3 23.0 -1.5 12 15.6 WNW 32 50 17 27 1005.3 1005.2 0.0
15/02:30pm 31.6 23.2 -1.2 12 15.8 WNW 33 50 18 27 1005.4 1005.3 0.0
15/02:12pm 31.1 21.9 -1.6 12 15.5 WNW 37 56 20 30 1005.4 1005.3 0.0
15/02:00pm 31.5 21.9 -1.3 12 15.7 NW 39 50 21 27 1005.5 1005.4 0.0
15/01:30pm 31.5 22.7 -1.3 12 15.7 NNW 35 46 19 25 1005.9 1005.8 0.0
15/01:00pm 30.1 21.1 -2.4 12 15.1 NNW 35 50 19 27 1006.4 1006.3 0.0
15/12:30pm 30.0 20.6 -2.5 12 15.1 NNW 37 48 20 26 1007.0 1006.9 0.0
15/12:00pm 29.1 20.2 -2.1 13 14.5 NNW 35 46 19 25 1007.7 1007.7 0.0
15/11:30am 27.8 19.4 -2.1 14 13.7 NNW 32 43 17 23 1008.6 1008.5 0.0
15/11:00am 26.9 18.6 -1.9 15 13.2 NNW 32 43 17 23 1009.5 1009.4 0.0
15/10:45am 26.3 17.9 -2.4 15 12.9 NNW 32 50 17 27 1009.8 1009.7 0.0
15/10:30am 25.9 18.3 -1.8 16 12.6 NNW 28 41 15 22 1009.9 1009.8 0.0
15/10:00am 23.9 16.4 -1.1 19 11.3 N 28 35 15 19 1010.1 1010.0 0.0
15/09:30am 23.0 16.3 -1.1 20 10.8 N 24 35 13 19 1010.3 1010.2 0.0
15/09:00am 22.1 15.5 -0.6 22 10.2 N 24 30 13 16 1010.6 1010.5 0.0
15/08:30am 19.8 16.0 -0.8 25 9.1 NNW 9 15 5 8 1011.3 1011.3 0.0
15/08:00am 18.1 13.9 -0.7 28 8.2 N 11 17 6 9 1011.2 1011.2 0.0
15/07:30am 14.4 11.9 -1.2 34 6.5 E 2 11 1 6 1011.2 1011.2 0.0
15/07:00am 14.0 9.7 -1.6 34 6.4 E 11 13 6 7 1011.3 1011.3 0.0
15/06:30am 14.3 10.4 -1.7 33 6.6 ENE 9 13 5 7 1011.2 1011.2 0.0
15/06:00am 13.1 8.8 -1.6 36 6.0 ENE 11 13 6 7 1011.1 1011.1 0.0
15/05:30am 13.9 11.4 -1.3 35 6.3 NE 2 9 1 5 1010.8 1010.8 0.0
15/05:00am 14.1 11.9 -1.5 34 6.4 CALM 0 0 0 0 1010.7 1010.6 0.0
15/04:30am 14.2 10.6 -1.8 33 6.6 NE 7 7 4 4 1010.6 1010.5 0.0
15/04:00am 13.8 10.2 -2.2 33 6.5 NE 7 9 4 5 1010.7 1010.6 0.0
15/03:30am 14.4 10.9 -1.6 33 6.6 NE 7 9 4 5 1011.0 1011.0 0.0
15/03:00am 14.9 11.0 -1.6 32 6.8 NE 9 11 5 6 1011.3 1011.3 0.0
15/02:30am 14.5 11.0 -1.6 33 6.6 N 7 9 4 5 1011.5 1011.5 0.0
15/02:00am 14.8 11.3 -1.7 32 6.8 N 7 9 4 5 1011.8 1011.8 0.0
15/01:30am 16.3 12.9 -1.7 29 7.5 N 6 9 3 5 1011.9 1011.9 0.0
15/01:00am 16.9 13.4 -1.2 29 7.7 N 7 9 4 5 1012.1 1012.1 0.0
15/12:30am 17.2 15.0 -1.4 28 7.9 CALM 0 0 0 0 1012.7 1012.6 0.0
15/12:00am 18.9 15.4 -1.0 26 8.7 N 7 9 4 5 1012.8 1012.7 0.0
 
Date/Time
CST
Temp
°C
App
Temp
°C
Dew
Point
°C
Rel
Hum
%
Delta-T
°C
Wind Press
QNH
hPa
Press
MSL
hPa
Rain since
9am
mm
Dir  Spd
km/h
Gust
km/h
Spd
kts
Gust
kts
14/11:30pm 18.2 13.5 -1.6 26 8.5 N 13 17 7 9 1013.1 1013.0 0.0
14/11:00pm 17.5 13.6 -1.2 28 8.0 N 9 19 5 10 1013.1 1013.0 0.0
14/10:30pm 17.8 13.9 -1.4 27 8.2 N 9 15 5 8 1013.2 1013.1 0.0
14/10:00pm 19.8 14.8 -1.3 24 9.2 N 15 19 8 10 1013.4 1013.3 0.0
14/09:30pm 22.0 16.2 -1.3 21 10.3 N 19 20 10 11 1013.6 1013.5 0.0
14/09:00pm 20.6 15.2 -1.2 23 9.6 N 17 19 9 10 1013.9 1013.8 0.0
14/08:30pm 22.3 18.5 -1.1 21 10.5 NNW 9 13 5 7 1014.2 1014.2 0.0
14/08:00pm 22.5 20.4 -0.9 21 10.5 CALM 0 4 0 2 1014.0 1013.9 0.0
14/07:30pm 22.8 18.2 -1.3 20 10.8 N 13 15 7 8 1013.8 1013.7 0.0
14/07:00pm 24.0 19.4 -1.0 19 11.3 N 13 17 7 9 1013.5 1013.4 0.0
14/06:30pm 26.5 20.8 -0.5 17 12.6 NNW 19 26 10 14 1013.1 1013.0 0.0
14/06:00pm 28.0 21.7 -1.0 15 13.6 N 22 30 12 16 1012.6 1012.5 0.0
14/05:30pm 28.4 22.0 -1.6 14 13.9 NNW 22 28 12 15 1012.7 1012.6 0.0

Other Formats:

Comma delimited format used in spreadsheet applications
http://www.bom.gov.au/fwo/IDS60801/IDS60801.94674.axf

JavaScript Object Notation format (JSON) in row-major order
http://www.bom.gov.au/fwo/IDS60801/IDS60801.94674.json